Time;durP1;ratioP1;P1;durP2;ratioP2;P2;SDS_P1;SDS_P2;PMS_P1;PMS_P2;Temp;Humidity;BMP_temperature;BMP_pressure;BME280_temperature;BME280_humidity;BME280_pressure;Samples;Min_cycle;Max_cycle;Signal;HPM_P1;HPM_P2
2021/06/07 00:02:00;;;;;;;8.47;7.67;;;17.10;97.30;;;;;;4973424;28;20508;-61
2021/06/07 00:04:29;;;;;;;9.57;7.40;;;17.00;97.40;;;;;;4974040;28;20531;-61
2021/06/07 00:06:57;;;;;;;8.20;7.50;;;17.00;97.60;;;;;;4992161;28;20496;-61
2021/06/07 00:09:25;;;;;;;8.70;7.90;;;16.90;97.80;;;;;;4973913;28;20447;-60
2021/06/07 00:11:55;;;;;;;7.60;6.90;;;16.90;98.20;;;;;;4976075;28;20424;-60
2021/06/07 00:14:27;;;;;;;7.37;6.77;;;16.90;98.30;;;;;;4975985;28;20467;-61
2021/06/07 00:16:54;;;;;;;7.63;6.93;;;16.90;98.30;;;;;;4973202;28;20471;-61
2021/06/07 00:19:23;;;;;;;6.23;5.80;;;16.90;98.40;;;;;;4979395;28;20420;-60
2021/06/07 00:21:50;;;;;;;7.93;6.53;;;16.90;98.50;;;;;;4973549;28;20514;-59
2021/06/07 00:24:19;;;;;;;10.43;7.80;;;16.80;98.50;;;;;;4971643;28;20472;-60
2021/06/07 00:26:47;;;;;;;7.23;6.57;;;16.80;98.80;;;;;;4978445;28;20633;-60
2021/06/07 00:29:15;;;;;;;7.80;7.00;;;16.80;99.30;;;;;;4971384;28;20798;-59
2021/06/07 00:31:43;;;;;;;8.70;7.80;;;16.60;99.50;;;;;;4969419;28;20459;-60
2021/06/07 00:34:11;;;;;;;10.10;7.40;;;16.60;99.00;;;;;;4974666;28;20769;-60
2021/06/07 00:36:39;;;;;;;8.10;7.30;;;16.70;99.40;;;;;;4975681;28;20444;-60
2021/06/07 00:39:09;;;;;;;6.93;6.33;;;16.60;99.80;;;;;;5007048;28;20845;-60
2021/06/07 00:41:37;;;;;;;8.40;6.80;;;16.60;99.60;;;;;;4977082;28;20677;-60
2021/06/07 00:44:09;;;;;;;8.27;7.33;;;16.60;99.90;;;;;;4969845;28;20412;-61
2021/06/07 00:46:36;;;;;;;11.07;7.00;;;16.60;99.90;;;;;;4975654;28;20434;-60
2021/06/07 00:49:05;;;;;;;7.17;6.57;;;16.60;99.90;;;;;;4973702;28;20408;-60
2021/06/07 00:51:32;;;;;;;7.32;6.70;;;16.60;99.90;;;;;;4967933;28;20455;-60
2021/06/07 00:54:00;;;;;;;7.57;6.97;;;16.60;99.90;;;;;;4975002;28;20353;-62
2021/06/07 00:56:27;;;;;;;7.27;6.63;;;16.50;99.90;;;;;;4974905;28;20708;-59
2021/06/07 00:58:54;;;;;;;10.17;8.20;;;16.60;99.90;;;;;;4970943;28;20438;-61
2021/06/07 01:01:23;;;;;;;7.40;6.77;;;16.60;99.90;;;;;;5000044;28;20497;-60
2021/06/07 01:03:54;;;;;;;7.73;7.03;;;16.60;99.90;;;;;;4971787;28;20639;-59
2021/06/07 01:06:21;;;;;;;8.03;7.23;;;16.70;99.90;;;;;;4975762;28;20785;-61
2021/06/07 01:08:49;;;;;;;7.03;6.40;;;16.80;99.90;;;;;;4973419;28;20464;-61
2021/06/07 01:11:16;;;;;;;7.03;6.43;;;16.80;99.90;;;;;;4969646;28;20464;-60
2021/06/07 01:13:44;;;;;;;7.97;7.17;;;16.90;99.90;;;;;;4972813;28;20450;-61
2021/06/07 01:16:11;;;;;;;7.13;6.53;;;16.90;99.90;;;;;;4974729;28;20624;-60
2021/06/07 01:18:39;;;;;;;10.10;7.40;;;16.90;99.90;;;;;;4977686;28;20466;-60
2021/06/07 01:21:08;;;;;;;8.17;7.33;;;16.80;99.90;;;;;;4980033;28;20465;-60
2021/06/07 01:23:37;;;;;;;8.17;7.57;;;16.70;99.90;;;;;;4980982;28;20513;-60
2021/06/07 01:26:06;;;;;;;8.20;6.93;;;16.70;99.90;;;;;;4973771;28;20472;-60
2021/06/07 01:28:34;;;;;;;7.57;6.77;;;16.80;99.90;;;;;;4978642;28;20920;-59
2021/06/07 01:31:03;;;;;;;7.80;7.00;;;16.80;99.90;;;;;;4975272;28;20446;-60
2021/06/07 01:33:31;;;;;;;7.90;7.10;;;16.80;99.90;;;;;;4974090;28;20438;-60
2021/06/07 01:36:02;;;;;;;8.07;7.33;;;16.70;99.90;;;;;;4977092;28;20425;-59
2021/06/07 01:38:29;;;;;;;10.67;8.73;;;16.60;99.90;;;;;;4978293;28;20627;-61
2021/06/07 01:40:59;;;;;;;7.70;7.00;;;16.50;99.90;;;;;;4979992;28;20458;-60
2021/06/07 01:43:27;;;;;;;8.50;7.77;;;16.50;99.90;;;;;;4979678;28;21103;-60
2021/06/07 01:45:55;;;;;;;8.57;7.07;;;16.50;99.90;;;;;;4973860;28;20465;-60
2021/06/07 01:48:25;;;;;;;6.90;6.30;;;16.50;99.90;;;;;;4973409;28;20799;-60
2021/06/07 01:50:55;;;;;;;10.40;7.90;;;16.50;99.90;;;;;;4978890;28;20427;-60
2021/06/07 01:53:24;;;;;;;7.80;7.10;;;16.40;99.90;;;;;;4971497;28;20489;-59
2021/06/07 01:55:55;;;;;;;8.23;7.53;;;16.30;99.90;;;;;;4976716;28;20453;-61
2021/06/07 01:58:23;;;;;;;8.57;7.87;;;16.30;99.90;;;;;;4978813;28;20231;-60
2021/06/07 02:00:58;;;;;;;8.13;7.33;;;16.30;99.90;;;;;;4980898;28;20448;-60
2021/06/07 02:03:26;;;;;;;9.82;8.13;;;16.20;99.90;;;;;;4978329;28;20500;-60
2021/06/07 02:05:57;;;;;;;10.20;9.30;;;16.20;99.90;;;;;;4980328;28;20220;-59
2021/06/07 02:08:29;;;;;;;9.27;8.47;;;16.10;99.90;;;;;;4977055;28;20433;-58
2021/06/07 02:11:00;;;;;;;9.10;8.30;;;16.00;99.90;;;;;;4971933;28;20648;-60
2021/06/07 02:13:27;;;;;;;8.80;8.10;;;16.70;99.90;;;;;;4971982;28;20230;-61
2021/06/07 02:16:06;;;;;;;8.00;7.30;;;15.70;99.90;;;;;;4977467;28;20922;-61
2021/06/07 02:18:36;;;;;;;8.70;7.90;;;15.80;99.90;;;;;;5009081;28;20450;-59
2021/06/07 02:21:06;;;;;;;8.30;7.45;;;15.80;99.90;;;;;;4978419;28;20249;-60
2021/06/07 02:23:34;;;;;;;9.40;8.48;;;15.80;99.90;;;;;;4977201;28;20216;-60
2021/06/07 02:26:01;;;;;;;11.50;8.07;;;15.80;99.90;;;;;;4980907;28;20208;-59
2021/06/07 02:28:29;;;;;;;9.02;8.15;;;15.70;99.90;;;;;;4972208;28;20258;-59
2021/06/07 02:30:56;;;;;;;8.27;7.50;;;15.70;99.90;;;;;;4977742;28;20249;-61
2021/06/07 02:33:23;;;;;;;8.82;8.07;;;15.70;99.90;;;;;;4979214;28;20406;-61
2021/06/07 02:35:50;;;;;;;7.60;6.93;;;15.70;99.90;;;;;;4975832;28;20251;-59
2021/06/07 02:38:18;;;;;;;8.25;7.63;;;15.70;99.90;;;;;;4970745;28;20267;-61
2021/06/07 02:40:47;;;;;;;9.32;7.47;;;15.70;99.90;;;;;;4978174;28;20216;-60
2021/06/07 02:43:14;;;;;;;7.75;7.05;;;15.70;99.90;;;;;;4977635;28;20239;-59
2021/06/07 02:45:42;;;;;;;10.93;7.60;;;15.70;99.90;;;;;;4973422;28;20250;-59
2021/06/07 02:48:09;;;;;;;7.90;7.22;;;15.60;99.90;;;;;;4971960;28;20210;-59
2021/06/07 02:50:44;;;;;;;8.35;7.57;;;15.50;99.90;;;;;;4976203;28;20261;-60
2021/06/07 02:53:12;;;;;;;8.65;7.75;;;14.70;99.90;;;;;;4975799;28;20214;-59
2021/06/07 02:55:43;;;;;;;11.75;7.72;;;15.50;99.90;;;;;;4967896;28;20203;-59
2021/06/07 02:58:10;;;;;;;8.65;7.85;;;15.60;99.90;;;;;;4966980;28;20215;-59
2021/06/07 03:00:42;;;;;;;8.50;7.70;;;15.70;99.90;;;;;;4979634;28;20212;-60
2021/06/07 03:03:09;;;;;;;8.30;7.47;;;15.80;99.90;;;;;;4975875;28;20226;-60
2021/06/07 03:05:38;;;;;;;8.80;7.90;;;15.70;99.90;;;;;;4978468;28;20234;-59
2021/06/07 03:08:10;;;;;;;9.45;8.55;;;15.70;99.90;;;;;;4976498;28;20509;-59
2021/06/07 03:10:38;;;;;;;10.40;8.30;;;15.70;99.90;;;;;;4977226;28;20270;-59
2021/06/07 03:13:05;;;;;;;9.70;8.50;;;15.80;99.90;;;;;;4979217;28;20580;-59
2021/06/07 03:15:33;;;;;;;8.70;7.72;;;15.90;99.90;;;;;;4977631;28;20210;-60
2021/06/07 03:18:04;;;;;;;9.45;8.48;;;16.00;99.90;;;;;;4976302;28;20275;-61
2021/06/07 03:20:32;;;;;;;7.90;7.18;;;16.10;99.90;;;;;;4978238;28;20580;-60
2021/06/07 03:23:03;;;;;;;9.55;7.72;;;16.20;99.90;;;;;;4975865;28;20257;-60
2021/06/07 03:25:34;;;;;;;9.50;8.30;;;16.30;99.90;;;;;;4978764;28;20223;-60
2021/06/07 03:28:02;;;;;;;9.57;8.13;;;16.30;99.90;;;;;;4980314;28;20208;-62
2021/06/07 03:30:29;;;;;;;10.43;8.40;;;16.30;99.90;;;;;;4977367;28;20214;-60
2021/06/07 03:32:57;;;;;;;8.87;8.17;;;16.30;99.90;;;;;;4978606;28;20259;-60
2021/06/07 03:35:25;;;;;;;10.37;8.53;;;16.40;99.90;;;;;;4975732;28;20745;-60
2021/06/07 03:37:52;;;;;;;11.37;9.43;;;16.50;99.90;;;;;;4973109;28;20463;-60
2021/06/07 03:40:24;;;;;;;11.73;8.87;;;16.70;99.90;;;;;;4971681;28;20468;-60
2021/06/07 03:42:51;;;;;;;11.30;8.60;;;16.90;99.90;;;;;;4964550;28;20543;-60
2021/06/07 03:45:18;;;;;;;10.50;7.83;;;17.50;99.90;;;;;;4974074;28;20507;-60
2021/06/07 03:47:47;;;;;;;9.07;8.07;;;17.90;99.90;;;;;;4964537;28;20480;-61
2021/06/07 03:50:17;;;;;;;9.70;8.70;;;18.00;99.90;;;;;;4962484;28;20463;-61
2021/06/07 03:52:45;;;;;;;9.27;8.37;;;18.30;99.90;;;;;;4967901;28;20423;-60
2021/06/07 03:55:15;;;;;;;8.70;7.77;;;18.90;99.50;;;;;;4965451;28;20447;-60
2021/06/07 03:57:42;;;;;;;9.27;8.27;;;19.50;98.10;;;;;;4964705;28;20474;-60
2021/06/07 04:00:13;;;;;;;10.57;9.50;;;20.20;96.80;;;;;;4965395;28;20422;-60
2021/06/07 04:02:41;;;;;;;10.33;9.33;;;20.50;95.80;;;;;;4970026;28;20466;-61
2021/06/07 04:05:09;;;;;;;17.33;11.70;;;20.30;96.10;;;;;;4968086;28;20768;-60
2021/06/07 04:07:36;;;;;;;9.60;8.70;;;20.00;96.80;;;;;;4968810;28;20476;-60
2021/06/07 04:10:06;;;;;;;9.03;8.23;;;20.00;97.00;;;;;;4965987;28;20412;-61
2021/06/07 04:12:33;;;;;;;10.83;9.80;;;19.80;97.20;;;;;;4964037;28;20815;-61
2021/06/07 04:15:02;;;;;;;10.67;9.40;;;19.70;97.30;;;;;;4964115;28;20643;-61
2021/06/07 04:17:29;;;;;;;11.90;10.70;;;19.50;97.60;;;;;;4963478;28;20471;-60
2021/06/07 04:19:57;;;;;;;11.20;9.90;;;19.30;97.80;;;;;;4967797;28;20435;-61
2021/06/07 04:22:24;;;;;;;14.37;10.67;;;19.20;98.30;;;;;;4966491;28;20769;-60
2021/06/07 04:24:51;;;;;;;10.90;9.87;;;19.20;98.60;;;;;;4961424;28;20466;-60
2021/06/07 04:27:18;;;;;;;11.13;9.60;;;19.10;98.70;;;;;;4965024;28;20490;-60
2021/06/07 04:29:45;;;;;;;11.60;10.60;;;19.00;98.70;;;;;;4961802;28;20464;-60
2021/06/07 04:32:13;;;;;;;11.50;10.37;;;18.80;99.30;;;;;;4963936;28;20775;-60
2021/06/07 04:34:40;;;;;;;17.77;10.80;;;18.90;99.60;;;;;;4963847;28;20518;-60
2021/06/07 04:37:07;;;;;;;13.30;10.47;;;19.00;99.20;;;;;;4962732;28;20463;-60
2021/06/07 04:39:34;;;;;;;14.93;10.03;;;19.00;99.10;;;;;;4971435;28;20468;-60
2021/06/07 04:42:02;;;;;;;13.43;10.40;;;19.10;99.10;;;;;;4974013;28;20502;-60
2021/06/07 04:44:29;;;;;;;15.10;10.57;;;19.00;99.30;;;;;;4972292;28;20430;-60
2021/06/07 04:46:56;;;;;;;11.77;10.67;;;19.10;99.20;;;;;;4971850;28;20836;-61
2021/06/07 04:49:23;;;;;;;11.10;10.10;;;19.10;99.10;;;;;;4977903;28;20445;-60
2021/06/07 04:51:51;;;;;;;14.40;11.93;;;19.30;99.00;;;;;;4974669;28;21089;-60
2021/06/07 04:54:18;;;;;;;12.90;11.60;;;19.40;98.90;;;;;;4975605;28;20431;-60
2021/06/07 04:56:45;;;;;;;12.30;11.10;;;19.50;98.50;;;;;;4974636;28;20435;-61
2021/06/07 04:59:12;;;;;;;12.67;11.60;;;19.70;98.10;;;;;;4975079;28;20419;-61
2021/06/07 05:01:44;;;;;;;12.40;11.20;;;19.40;97.70;;;;;;4978708;28;20501;-61
2021/06/07 05:04:11;;;;;;;13.50;12.30;;;20.20;97.40;;;;;;4972010;28;20673;-60
2021/06/07 05:06:38;;;;;;;15.00;13.47;;;20.40;97.20;;;;;;4975718;28;20427;-61
2021/06/07 05:09:05;;;;;;;12.70;11.40;;;20.40;96.80;;;;;;4979044;28;20482;-60
2021/06/07 05:11:33;;;;;;;12.23;11.23;;;20.40;97.10;;;;;;4973743;28;21127;-60
2021/06/07 05:14:00;;;;;;;13.50;12.30;;;20.40;97.10;;;;;;4957045;28;20446;-61
2021/06/07 05:16:27;;;;;;;12.40;11.30;;;20.70;96.90;;;;;;4984565;28;20805;-61
2021/06/07 05:18:54;;;;;;;14.83;12.50;;;20.80;97.00;;;;;;4974329;28;20441;-61
2021/06/07 05:21:22;;;;;;;14.50;12.70;;;21.00;96.50;;;;;;4969805;28;20622;-60
2021/06/07 05:23:49;;;;;;;18.73;12.40;;;21.20;96.40;;;;;;4968852;28;20493;-61
2021/06/07 05:26:16;;;;;;;12.07;10.53;;;21.40;95.10;;;;;;4966660;28;20420;-60
2021/06/07 05:28:43;;;;;;;13.63;11.43;;;21.70;94.90;;;;;;4964380;28;20470;-61
2021/06/07 05:31:10;;;;;;;12.87;11.77;;;22.10;94.30;;;;;;4963551;28;20452;-60
2021/06/07 05:33:38;;;;;;;13.73;12.43;;;22.60;93.60;;;;;;4964819;28;20499;-61
2021/06/07 05:36:05;;;;;;;13.60;12.20;;;22.80;92.50;;;;;;4969167;28;21071;-60
2021/06/07 05:38:37;;;;;;;15.93;12.97;;;22.90;92.80;;;;;;4963538;28;20526;-61
2021/06/07 05:41:08;;;;;;;13.90;12.50;;;23.20;92.20;;;;;;4967453;28;20454;-60
2021/06/07 05:43:35;;;;;;;14.40;13.13;;;23.40;91.20;;;;;;4968635;28;20506;-61
2021/06/07 05:46:02;;;;;;;12.33;11.23;;;23.60;90.70;;;;;;4966437;28;20504;-61
2021/06/07 05:48:30;;;;;;;11.83;10.77;;;23.50;90.10;;;;;;4967270;28;20505;-59
2021/06/07 05:50:57;;;;;;;13.20;12.10;;;23.40;90.10;;;;;;4966043;28;20419;-60
2021/06/07 05:53:24;;;;;;;13.33;12.00;;;23.30;90.00;;;;;;4969671;28;20613;-60
2021/06/07 05:55:51;;;;;;;11.17;10.37;;;22.90;90.90;;;;;;4973740;28;20433;-61
2021/06/07 05:58:20;;;;;;;10.80;10.07;;;22.80;91.30;;;;;;4967229;28;20518;-60
2021/06/07 06:00:50;;;;;;;11.00;10.07;;;22.50;92.00;;;;;;4969486;28;20779;-60
2021/06/07 06:03:18;;;;;;;11.97;11.03;;;22.50;92.00;;;;;;4974375;28;20495;-60
2021/06/07 06:05:46;;;;;;;13.10;12.00;;;22.70;91.80;;;;;;4974449;28;20668;-60
2021/06/07 06:08:13;;;;;;;14.30;12.80;;;23.00;91.70;;;;;;4973637;28;20445;-60
2021/06/07 06:10:41;;;;;;;13.87;11.57;;;23.60;91.20;;;;;;5008036;28;20913;-61
2021/06/07 06:13:28;;;;;;;12.07;11.07;;;24.20;90.20;;;;;;4977188;28;20616;-61
2021/06/07 06:15:55;;;;;;;13.47;12.40;;;24.90;86.40;;;;;;4975647;28;20516;-60
2021/06/07 06:18:23;;;;;;;12.30;11.47;;;25.40;84.60;;;;;;4979508;28;20419;-60
2021/06/07 06:20:50;;;;;;;12.53;11.50;;;25.90;81.60;;;;;;4974450;28;20966;-60
2021/06/07 06:23:17;;;;;;;14.10;12.70;;;26.50;80.00;;;;;;4989424;28;20572;-59
2021/06/07 06:25:44;;;;;;;13.63;12.73;;;27.90;74.90;;;;;;4974816;28;20502;-61
2021/06/07 06:28:12;;;;;;;13.30;12.40;;;29.50;68.30;;;;;;4973835;28;20455;-60
2021/06/07 06:30:49;;;;;;;12.70;11.67;;;30.30;63.30;;;;;;4971330;28;20453;-60
2021/06/07 06:33:19;;;;;;;14.47;13.47;;;29.70;63.40;;;;;;4972234;28;20470;-60
2021/06/07 06:35:46;;;;;;;13.00;12.00;;;29.00;64.00;;;;;;4973308;28;20445;-59
2021/06/07 06:38:15;;;;;;;14.60;13.30;;;28.80;65.50;;;;;;4975472;28;20530;-61
2021/06/07 06:40:43;;;;;;;12.97;12.10;;;29.00;64.10;;;;;;4976916;28;20444;-60
2021/06/07 06:43:11;;;;;;;13.93;12.63;;;28.50;64.70;;;;;;4980315;28;20546;-59
2021/06/07 06:45:39;;;;;;;15.03;13.93;;;29.10;62.90;;;;;;4979553;28;20924;-59
2021/06/07 06:48:08;;;;;;;13.50;12.60;;;29.50;61.20;;;;;;4968940;28;20607;-59
2021/06/07 06:50:39;;;;;;;12.20;11.50;;;29.80;61.20;;;;;;4963267;28;20449;-60
2021/06/07 06:53:11;;;;;;;13.07;12.07;;;29.40;61.70;;;;;;4964260;28;20449;-60
2021/06/07 06:55:39;;;;;;;14.07;12.97;;;31.60;57.50;;;;;;4970193;28;20480;-60
2021/06/07 06:58:08;;;;;;;12.80;12.00;;;34.00;52.30;;;;;;4965568;28;20452;-60
2021/06/07 07:00:38;;;;;;;13.77;12.67;;;36.10;46.50;;;;;;4964957;28;20709;-60
2021/06/07 07:03:09;;;;;;;12.50;11.70;;;36.30;44.30;;;;;;4965144;28;20485;-60
2021/06/07 07:05:38;;;;;;;11.57;10.80;;;37.20;41.90;;;;;;4974918;28;20797;-62
2021/06/07 07:08:06;;;;;;;13.23;12.10;;;36.50;41.70;;;;;;4975717;28;20445;-60
2021/06/07 07:10:34;;;;;;;12.50;11.60;;;35.60;41.50;;;;;;4975471;28;20457;-60
2021/06/07 07:13:03;;;;;;;12.00;11.17;;;34.30;42.90;;;;;;4976194;28;20448;-59
2021/06/07 07:15:31;;;;;;;10.77;10.17;;;33.70;44.40;;;;;;4979536;28;20456;-60
2021/06/07 07:17:58;;;;;;;10.80;10.30;;;32.20;46.60;;;;;;4978654;28;20507;-59
2021/06/07 07:20:25;;;;;;;12.50;11.80;;;30.70;49.00;;;;;;4978763;28;20553;-62
2021/06/07 07:22:53;;;;;;;12.90;12.07;;;29.70;51.40;;;;;;4969574;28;20871;-60
2021/06/07 07:25:21;;;;;;;12.13;11.33;;;29.30;52.30;;;;;;4977120;28;20575;-60
2021/06/07 07:27:49;;;;;;;11.97;11.07;;;28.40;54.30;;;;;;4979848;28;20826;-62
2021/06/07 07:30:18;;;;;;;13.27;12.27;;;27.90;56.20;;;;;;4975396;28;20446;-61
2021/06/07 07:32:48;;;;;;;12.60;11.50;;;27.70;57.40;;;;;;4979877;28;20456;-59
2021/06/07 07:35:16;;;;;;;13.43;11.60;;;27.40;58.00;;;;;;4968194;28;20453;-60
2021/06/07 07:37:44;;;;;;;12.93;11.83;;;27.30;58.50;;;;;;4975202;28;20469;-59
2021/06/07 07:40:14;;;;;;;12.83;11.80;;;27.40;59.30;;;;;;4969857;28;20459;-60
2021/06/07 07:42:41;;;;;;;11.80;10.70;;;27.40;58.70;;;;;;4975998;28;20505;-59
2021/06/07 07:45:10;;;;;;;11.80;11.00;;;27.20;59.30;;;;;;4978562;28;20439;-60
2021/06/07 07:47:38;;;;;;;12.47;11.50;;;27.30;59.10;;;;;;4979396;28;20490;-58
2021/06/07 07:50:15;;;;;;;13.10;12.03;;;27.20;59.80;;;;;;4979700;28;20489;-61
2021/06/07 07:52:42;;;;;;;12.87;12.13;;;27.40;60.90;;;;;;4975413;28;20440;-59
2021/06/07 07:55:11;;;;;;;12.00;11.20;;;27.30;61.10;;;;;;4979071;28;20446;-62
2021/06/07 07:57:38;;;;;;;12.93;11.17;;;27.40;60.40;;;;;;4975028;28;20447;-61
2021/06/07 08:00:08;;;;;;;13.27;12.17;;;27.30;59.70;;;;;;4970349;28;20837;-61
2021/06/07 08:02:35;;;;;;;11.63;10.90;;;27.50;59.40;;;;;;4978560;28;20487;-62
2021/06/07 08:05:04;;;;;;;12.70;11.90;;;27.70;59.30;;;;;;4967819;28;20757;-62
2021/06/07 08:07:31;;;;;;;12.30;11.47;;;28.40;57.80;;;;;;4972219;28;20452;-60
2021/06/07 08:09:58;;;;;;;13.80;12.80;;;29.40;56.50;;;;;;4978770;28;20507;-60
2021/06/07 08:12:25;;;;;;;12.27;11.47;;;31.20;52.80;;;;;;4978442;28;20488;-60
2021/06/07 08:14:52;;;;;;;13.40;12.20;;;34.00;47.70;;;;;;4973962;28;20509;-60
2021/06/07 08:17:19;;;;;;;14.23;12.93;;;35.80;44.70;;;;;;4977198;28;20487;-61
2021/06/07 08:19:47;;;;;;;13.70;12.80;;;37.90;41.60;;;;;;4977443;28;20452;-59
2021/06/07 08:22:14;;;;;;;12.50;11.83;;;39.20;38.60;;;;;;4979072;28;20759;-60
2021/06/07 08:24:41;;;;;;;12.63;11.93;;;40.20;37.50;;;;;;4974145;28;20475;-61
2021/06/07 08:27:08;;;;;;;12.60;11.77;;;41.20;35.40;;;;;;4971528;28;20468;-61
2021/06/07 08:29:35;;;;;;;11.73;11.20;;;42.00;34.40;;;;;;4979025;28;20456;-61
2021/06/07 08:32:03;;;;;;;12.33;11.73;;;42.60;33.10;;;;;;4974370;28;20496;-60
2021/06/07 08:34:30;;;;;;;12.70;12.00;;;43.30;32.30;;;;;;4978741;28;20448;-60
2021/06/07 08:36:57;;;;;;;12.60;12.00;;;43.20;31.80;;;;;;4975202;28;20440;-61
2021/06/07 08:39:25;;;;;;;13.23;12.43;;;43.80;30.90;;;;;;4973283;28;20840;-61
2021/06/07 08:41:52;;;;;;;12.70;11.70;;;42.10;32.60;;;;;;4971286;28;20809;-60
2021/06/07 08:44:24;;;;;;;13.00;12.40;;;43.40;31.80;;;;;;4972903;28;20478;-61
2021/06/07 08:46:51;;;;;;;11.90;11.40;;;43.20;31.50;;;;;;4973419;28;20448;-60
2021/06/07 08:49:18;;;;;;;11.87;11.27;;;41.40;33.80;;;;;;4978221;28;20448;-60
2021/06/07 08:51:46;;;;;;;12.60;11.80;;;40.90;34.50;;;;;;4977931;28;20495;-61
2021/06/07 08:54:13;;;;;;;10.20;9.77;;;40.40;34.20;;;;;;4977641;28;20463;-61
2021/06/07 08:56:42;;;;;;;11.00;10.50;;;40.90;31.50;;;;;;4973478;28;20444;-61
2021/06/07 08:59:11;;;;;;;11.10;10.60;;;40.70;31.70;;;;;;4971034;28;20449;-62
2021/06/07 09:01:39;;;;;;;11.33;10.83;;;41.00;31.80;;;;;;4978199;28;20491;-62
2021/06/07 09:04:15;;;;;;;10.63;10.23;;;41.30;30.90;;;;;;4978766;28;20492;-61
2021/06/07 09:06:46;;;;;;;10.17;9.67;;;41.40;30.10;;;;;;4976285;28;20432;-61
2021/06/07 09:09:15;;;;;;;10.00;9.50;;;41.10;30.40;;;;;;4978103;28;20436;-61
2021/06/07 09:11:48;;;;;;;11.67;11.07;;;40.90;30.40;;;;;;4977009;28;20452;-61
2021/06/07 09:14:20;;;;;;;10.73;10.23;;;40.00;32.30;;;;;;4977836;28;20647;-61
2021/06/07 09:16:47;;;;;;;12.40;11.50;;;40.30;31.00;;;;;;4977395;28;20754;-62
2021/06/07 09:19:31;;;;;;;11.50;10.90;;;40.90;30.80;;;;;;4971249;28;20753;-60
2021/06/07 09:22:21;;;;;;;11.67;11.07;;;42.70;29.30;;;;;;4970163;28;20448;-62
2021/06/07 09:25:08;;;;;;;11.30;10.90;;;43.30;27.90;;;;;;4972100;28;20519;-61
2021/06/07 09:27:37;;;;;;;10.30;9.90;;;42.60;28.40;;;;;;4966155;28;20511;-61
2021/06/07 09:30:24;;;;;;;11.27;10.77;;;43.20;27.30;;;;;;4975962;28;20464;-61
2021/06/07 09:33:14;;;;;;;10.77;10.27;;;42.50;27.40;;;;;;4973463;28;20459;-61
2021/06/07 09:35:42;;;;;;;11.40;10.83;;;40.70;29.10;;;;;;4974823;28;20449;-61
2021/06/07 09:38:10;;;;;;;10.80;10.30;;;39.00;30.80;;;;;;4971702;28;20468;-61
2021/06/07 09:40:37;;;;;;;10.80;10.30;;;37.60;32.30;;;;;;4981104;28;20779;-60
2021/06/07 09:43:06;;;;;;;9.93;9.50;;;36.40;34.40;;;;;;4976337;28;20993;-61
2021/06/07 09:45:45;;;;;;;11.30;10.13;;;35.60;35.60;;;;;;4973482;28;20479;-61
2021/06/07 09:48:15;;;;;;;10.70;10.07;;;34.70;36.30;;;;;;4978132;28;20492;-62
2021/06/07 09:50:59;;;;;;;11.00;10.40;;;34.00;37.00;;;;;;4975726;28;20507;-62
2021/06/07 09:53:55;;;;;;;9.90;9.40;;;32.40;40.30;;;;;;4979653;28;20456;-61
2021/06/07 09:56:23;;;;;;;9.70;9.20;;;32.10;40.80;;;;;;4974523;28;20447;-61
2021/06/07 09:58:50;;;;;;;10.50;10.00;;;32.00;41.20;;;;;;4970901;28;20450;-61
2021/06/07 10:01:20;;;;;;;9.43;9.03;;;32.30;39.80;;;;;;4979828;28;20432;-61
2021/06/07 10:03:58;;;;;;;9.40;9.00;;;32.60;40.40;;;;;;4980993;28;20535;-60
2021/06/07 10:06:34;;;;;;;9.87;9.30;;;32.50;40.40;;;;;;4975965;28;20444;-60
2021/06/07 10:09:11;;;;;;;9.90;9.40;;;32.40;40.50;;;;;;4977039;28;20909;-60
2021/06/07 10:11:41;;;;;;;10.33;9.77;;;32.10;40.70;;;;;;4976074;28;20440;-59
2021/06/07 10:14:15;;;;;;;10.80;9.80;;;32.20;41.40;;;;;;4977639;28;20482;-61
2021/06/07 10:17:01;;;;;;;10.10;9.60;;;32.30;41.80;;;;;;4971639;28;20484;-61
2021/06/07 10:22:08;;;;;;;10.23;9.73;;;32.00;40.00;;;;;;4979589;28;20461;-61
2021/06/07 10:24:35;;;;;;;9.80;9.30;;;31.70;41.50;;;;;;4980303;28;20582;-61
2021/06/07 10:27:03;;;;;;;11.27;10.50;;;31.40;41.40;;;;;;4977695;28;20448;-60
2021/06/07 10:29:38;;;;;;;9.90;9.10;;;31.10;40.90;;;;;;4972572;28;20459;-60
2021/06/07 10:32:24;;;;;;;9.90;9.30;;;30.90;40.60;;;;;;4980226;28;20438;-61
2021/06/07 10:35:05;;;;;;;9.70;9.20;;;30.60;41.50;;;;;;4981649;28;20453;-61
2021/06/07 10:37:32;;;;;;;11.43;10.60;;;30.70;41.30;;;;;;4979630;28;20667;-61
2021/06/07 10:40:18;;;;;;;10.47;9.77;;;30.80;42.40;;;;;;4980322;28;20647;-61
2021/06/07 10:42:59;;;;;;;12.07;11.07;;;30.60;43.30;;;;;;4980744;28;20532;-60
2021/06/07 10:45:30;;;;;;;9.77;9.27;;;30.40;43.60;;;;;;4971172;28;20442;-60
2021/06/07 10:47:57;;;;;;;9.47;8.97;;;29.90;43.90;;;;;;4980659;28;20491;-60
2021/06/07 10:50:28;;;;;;;10.00;9.30;;;29.40;44.60;;;;;;4977867;28;20487;-59
2021/06/07 10:53:05;;;;;;;10.40;9.70;;;29.10;44.60;;;;;;4976799;28;20437;-62
2021/06/07 10:55:42;;;;;;;10.17;9.47;;;29.30;44.00;;;;;;4975421;28;20780;-61
2021/06/07 10:58:13;;;;;;;8.63;8.13;;;29.70;44.20;;;;;;4977983;28;20452;-60
2021/06/07 11:00:48;;;;;;;9.23;8.80;;;29.90;44.00;;;;;;4980441;28;20496;-59
2021/06/07 11:03:18;;;;;;;8.20;7.90;;;29.90;44.30;;;;;;4978487;28;20483;-61
2021/06/07 11:05:48;;;;;;;8.60;8.00;;;29.70;44.20;;;;;;4975894;28;20468;-60
2021/06/07 11:08:19;;;;;;;8.30;7.90;;;29.20;43.20;;;;;;4980869;28;20448;-61
2021/06/07 11:10:58;;;;;;;8.50;8.10;;;28.60;41.90;;;;;;4980828;28;20471;-60
2021/06/07 11:13:30;;;;;;;9.03;8.57;;;28.30;42.80;;;;;;4979720;28;20683;-61
2021/06/07 11:16:01;;;;;;;9.63;8.93;;;28.60;44.00;;;;;;4980549;28;20448;-61
2021/06/07 11:18:33;;;;;;;8.70;8.30;;;28.90;42.20;;;;;;4975638;28;20451;-60
2021/06/07 11:21:07;;;;;;;8.47;8.13;;;29.10;42.60;;;;;;4980766;28;20440;-61
2021/06/07 11:23:44;;;;;;;9.30;8.90;;;29.40;42.00;;;;;;4988084;28;20495;-59
2021/06/07 11:26:21;;;;;;;7.73;7.43;;;29.40;41.70;;;;;;4979808;28;20483;-60
2021/06/07 11:28:50;;;;;;;11.53;9.17;;;29.40;42.20;;;;;;4976508;28;20448;-60
2021/06/07 11:31:18;;;;;;;9.63;8.80;;;29.60;42.10;;;;;;4979802;28;20448;-60
2021/06/07 11:33:55;;;;;;;9.23;8.63;;;29.40;43.40;;;;;;4979774;28;20511;-60
2021/06/07 11:36:46;;;;;;;8.37;7.87;;;29.50;42.80;;;;;;4979550;28;20495;-60
2021/06/07 11:39:43;;;;;;;8.30;7.90;;;29.40;42.20;;;;;;4978047;28;20511;-60
2021/06/07 11:42:15;;;;;;;9.03;8.57;;;29.20;42.40;;;;;;4975943;28;20473;-61
2021/06/07 11:44:59;;;;;;;8.43;8.03;;;29.30;42.20;;;;;;4971556;28;20489;-59
2021/06/07 11:47:51;;;;;;;8.63;8.23;;;29.40;42.80;;;;;;4979260;28;20843;-60
2021/06/07 11:50:30;;;;;;;8.77;8.33;;;29.30;43.50;;;;;;4968430;28;20445;-60
2021/06/07 11:53:14;;;;;;;8.97;8.37;;;29.20;44.30;;;;;;4979727;28;20441;-60
2021/06/07 11:55:43;;;;;;;9.10;8.50;;;29.40;44.90;;;;;;4979062;28;20445;-61
2021/06/07 11:58:18;;;;;;;9.43;8.87;;;29.30;44.60;;;;;;4976816;28;20472;-60
2021/06/07 12:00:57;;;;;;;8.50;7.80;;;29.10;44.80;;;;;;4973157;28;20463;-60
2021/06/07 12:03:27;;;;;;;9.23;8.60;;;28.80;45.30;;;;;;4964783;28;20504;-60
2021/06/07 12:05:55;;;;;;;8.73;8.30;;;28.60;46.10;;;;;;4969872;28;20511;-61
2021/06/07 12:08:25;;;;;;;9.47;8.77;;;28.70;46.60;;;;;;4974358;28;20444;-60
2021/06/07 12:10:54;;;;;;;8.67;8.27;;;28.80;46.60;;;;;;4978306;28;20507;-61
2021/06/07 12:13:30;;;;;;;8.30;7.90;;;28.80;46.40;;;;;;4976513;28;20751;-61
2021/06/07 12:16:04;;;;;;;8.67;8.17;;;28.90;47.40;;;;;;4975255;28;20448;-59
2021/06/07 12:18:42;;;;;;;8.50;8.10;;;28.70;47.30;;;;;;4974650;28;20432;-61
2021/06/07 12:21:14;;;;;;;8.80;8.40;;;28.40;47.90;;;;;;4975585;28;20448;-59
2021/06/07 12:23:47;;;;;;;8.10;7.50;;;27.90;47.90;;;;;;4977602;28;20491;-60
2021/06/07 12:29:29;;;;;;;9.60;8.90;;;27.70;49.10;;;;;;4976798;28;20444;-60
2021/06/07 12:32:22;;;;;;;9.13;8.63;;;27.90;48.30;;;;;;4972067;28;20691;-60
2021/06/07 12:35:16;;;;;;;9.30;8.80;;;28.10;47.90;;;;;;4976930;28;20460;-60
2021/06/07 12:37:54;;;;;;;8.90;8.10;;;28.40;47.60;;;;;;4966436;28;20472;-61
2021/06/07 12:40:31;;;;;;;9.10;8.40;;;28.60;46.80;;;;;;4977044;28;20448;-60
2021/06/07 12:43:00;;;;;;;8.17;7.77;;;28.80;43.60;;;;;;4976921;28;20476;-60
2021/06/07 12:45:35;;;;;;;9.07;8.23;;;28.90;41.30;;;;;;4975364;28;20492;-60
2021/06/07 12:48:14;;;;;;;8.53;8.00;;;28.80;42.10;;;;;;4972495;28;20472;-59
2021/06/07 12:50:46;;;;;;;8.60;7.93;;;28.80;42.40;;;;;;4971065;28;20448;-61
2021/06/07 12:53:13;;;;;;;7.50;7.10;;;28.50;42.20;;;;;;4977095;28;20503;-59
2021/06/07 12:55:44;;;;;;;7.70;7.30;;;28.20;43.50;;;;;;4977345;28;20472;-60
2021/06/07 12:58:16;;;;;;;8.70;8.20;;;28.10;44.50;;;;;;4975995;28;20455;-60
2021/06/07 13:00:50;;;;;;;8.07;7.67;;;28.20;43.80;;;;;;4971331;28;20568;-60